Time;durP1;ratioP1;P1;durP2;ratioP2;P2;SDS_P1;SDS_P2;PMS_P1;PMS_P2;Temp;Humidity;BMP_temperature;BMP_pressure;BME280_temperature;BME280_humidity;BME280_pressure;Samples;Min_cycle;Max_cycle;Signal;HPM_P1;HPM_P2
2022/07/03 00:00:43;;;;;;;3.10;2.80;;;;;;;;;;5011884;28;20486;-56
2022/07/03 00:03:09;;;;;;;4.03;2.80;;;;;;;;;;5011823;28;20874;-57
2022/07/03 00:05:35;;;;;;;4.37;3.00;;;;;;;;;;5012222;28;20410;-56
2022/07/03 00:08:05;;;;;;;3.63;2.53;;;;;;;;;;5012189;28;20546;-56
2022/07/03 00:10:31;;;;;;;2.50;2.17;;;;;;;;;;5011932;28;20438;-56
2022/07/03 00:12:57;;;;;;;4.60;3.20;;;;;;;;;;5012071;28;20465;-56
2022/07/03 00:15:23;;;;;;;7.00;3.30;;;;;;;;;;5012020;28;20977;-54
2022/07/03 00:17:49;;;;;;;2.97;2.77;;;;;;;;;;5011947;28;20877;-56
2022/07/03 00:20:15;;;;;;;2.90;2.70;;;;;;;;;;5011709;28;20399;-56
2022/07/03 00:22:43;;;;;;;3.40;2.90;;;;;;;;;;5011969;28;20734;-57
2022/07/03 00:25:10;;;;;;;4.80;3.60;;;;;;;;;;5012031;28;20442;-54
2022/07/03 00:27:38;;;;;;;5.00;3.50;;;;;;;;;;5011814;28;20485;-56
2022/07/03 00:30:07;;;;;;;3.73;2.67;;;;;;;;;;5011923;28;20905;-58
2022/07/03 00:32:33;;;;;;;3.30;2.70;;;;;;;;;;5011894;28;20411;-56
2022/07/03 00:34:59;;;;;;;3.20;2.90;;;;;;;;;;5011904;28;20438;-55
2022/07/03 00:37:26;;;;;;;6.63;2.90;;;;;;;;;;5011644;28;20473;-56
2022/07/03 00:39:52;;;;;;;3.33;2.93;;;;;;;;;;5012510;28;20398;-56
2022/07/03 00:42:18;;;;;;;3.23;2.47;;;;;;;;;;5011524;28;20399;-55
2022/07/03 00:44:44;;;;;;;7.00;2.73;;;;;;;;;;5011977;28;20835;-55
2022/07/03 00:47:11;;;;;;;3.40;3.10;;;;;;;;;;5011760;28;20461;-56
2022/07/03 00:49:38;;;;;;;3.20;3.00;;;;;;;;;;5014012;28;20498;-56
2022/07/03 00:52:05;;;;;;;3.60;2.80;;;;;;;;;;5015473;28;20438;-56
2022/07/03 00:54:33;;;;;;;4.03;3.07;;;;;;;;;;5015700;28;20385;-55
2022/07/03 00:57:00;;;;;;;2.30;2.10;;;;;;;;;;5015405;28;20400;-55
2022/07/03 00:59:26;;;;;;;3.63;2.87;;;;;;;;;;5015422;28;20892;-56
2022/07/03 01:01:54;;;;;;;2.87;2.60;;;;;;;;;;5014905;28;20424;-57
2022/07/03 01:04:37;;;;;;;7.60;3.20;;;;;;;;;;5014887;28;20398;-56
2022/07/03 01:07:06;;;;;;;5.13;2.80;;;;;;;;;;5015163;28;20414;-56
2022/07/03 01:09:51;;;;;;;4.17;3.50;;;;;;;;;;5015223;28;20397;-57
2022/07/03 01:12:32;;;;;;;3.60;2.97;;;;;;;;;;5014995;28;20381;-56
2022/07/03 01:15:11;;;;;;;3.37;3.03;;;;;;;;;;5015303;28;20399;-56
2022/07/03 01:17:43;;;;;;;3.93;2.87;;;;;;;;;;5014861;28;20466;-57
2022/07/03 01:20:09;;;;;;;3.43;2.33;;;;;;;;;;5015234;28;20739;-54
2022/07/03 01:22:35;;;;;;;4.13;2.90;;;;;;;;;;5015045;28;20452;-56
2022/07/03 01:25:13;;;;;;;2.87;2.67;;;;;;;;;;5015062;28;20433;-56
2022/07/03 01:27:48;;;;;;;4.40;3.23;;;;;;;;;;5015019;28;20429;-54
2022/07/03 01:30:14;;;;;;;7.93;4.03;;;;;;;;;;5014653;28;20404;-57
2022/07/03 01:32:50;;;;;;;3.17;2.87;;;;;;;;;;5015029;28;20393;-56
2022/07/03 01:35:21;;;;;;;3.17;2.97;;;;;;;;;;5015071;28;20416;-56
2022/07/03 01:37:48;;;;;;;4.43;2.90;;;;;;;;;;5014596;28;20537;-55
2022/07/03 01:40:15;;;;;;;3.33;2.43;;;;;;;;;;5014535;28;20378;-55
2022/07/03 01:42:42;;;;;;;5.17;2.90;;;;;;;;;;5014549;28;20407;-57
2022/07/03 01:45:09;;;;;;;2.83;2.53;;;;;;;;;;5014693;28;20756;-55
2022/07/03 01:47:35;;;;;;;3.37;3.07;;;;;;;;;;5014503;28;20991;-55
2022/07/03 01:50:01;;;;;;;2.90;2.60;;;;;;;;;;5014592;28;20405;-56
2022/07/03 01:52:32;;;;;;;4.17;3.10;;;;;;;;;;5014384;28;20375;-56
2022/07/03 01:55:01;;;;;;;6.27;3.00;;;;;;;;;;5014797;28;20833;-56
2022/07/03 01:57:46;;;;;;;6.80;2.83;;;;;;;;;;5014196;28;20459;-55
2022/07/03 02:00:12;;;;;;;3.20;2.87;;;;;;;;;;5013169;28;20393;-56
2022/07/03 02:02:43;;;;;;;3.03;2.60;;;;;;;;;;5014668;28;20396;-58
2022/07/03 02:05:11;;;;;;;3.10;2.80;;;;;;;;;;5014238;28;20401;-56
2022/07/03 02:07:40;;;;;;;3.17;2.97;;;;;;;;;;5014005;28;20429;-57
2022/07/03 02:10:07;;;;;;;3.60;3.07;;;;;;;;;;5014050;28;20405;-57
2022/07/03 02:12:37;;;;;;;3.63;2.93;;;;;;;;;;5014150;28;20402;-56
2022/07/03 02:15:05;;;;;;;2.80;2.60;;;;;;;;;;5014113;28;20385;-56
2022/07/03 02:17:36;;;;;;;4.53;2.73;;;;;;;;;;5013882;28;20555;-56
2022/07/03 02:20:07;;;;;;;5.83;3.67;;;;;;;;;;5013946;28;20391;-57
2022/07/03 02:22:35;;;;;;;2.80;2.60;;;;;;;;;;5013982;28;20405;-56
2022/07/03 02:25:08;;;;;;;3.57;3.27;;;;;;;;;;5013877;28;20384;-55
2022/07/03 02:27:44;;;;;;;5.07;3.57;;;;;;;;;;5013964;28;20789;-57
2022/07/03 02:30:11;;;;;;;4.37;4.00;;;;;;;;;;5013651;28;20387;-58
2022/07/03 02:32:39;;;;;;;5.67;3.80;;;;;;;;;;5013576;28;20844;-56
2022/07/03 02:35:06;;;;;;;9.27;4.93;;;;;;;;;;5013638;28;20892;-56
2022/07/03 02:38:04;;;;;;;7.03;5.27;;;;;;;;;;5013511;28;20480;-55
2022/07/03 02:40:37;;;;;;;9.40;5.10;;;;;;;;;;4980590;28;20422;-56
2022/07/03 02:43:03;;;;;;;10.17;5.30;;;;;;;;;;5013670;28;20380;-57
2022/07/03 02:45:39;;;;;;;5.70;4.50;;;;;;;;;;5013647;28;20413;-57
2022/07/03 02:48:07;;;;;;;6.63;4.43;;;;;;;;;;5013584;28;20943;-56
2022/07/03 02:50:34;;;;;;;10.70;4.47;;;;;;;;;;5013499;28;20417;-56
2022/07/03 02:53:16;;;;;;;10.50;5.27;;;;;;;;;;5013796;28;20769;-56
2022/07/03 02:55:44;;;;;;;7.70;3.80;;;;;;;;;;5013455;28;20487;-57
2022/07/03 02:58:19;;;;;;;6.73;4.37;;;;;;;;;;5013247;28;20494;-56
2022/07/03 03:00:53;;;;;;;7.53;4.20;;;;;;;;;;5013093;28;20428;-57
2022/07/03 03:03:21;;;;;;;9.60;4.40;;;;;;;;;;5013361;28;20438;-57
2022/07/03 03:05:49;;;;;;;4.00;3.70;;;;;;;;;;5013289;28;20403;-56
2022/07/03 03:08:24;;;;;;;4.30;3.90;;;;;;;;;;5013001;28;20566;-56
2022/07/03 03:10:51;;;;;;;6.57;3.90;;;;;;;;;;5012943;28;20794;-56
2022/07/03 03:13:19;;;;;;;5.07;3.90;;;;;;;;;;5012987;28;20404;-56
2022/07/03 03:16:06;;;;;;;7.23;4.80;;;;;;;;;;5013456;28;20495;-55
2022/07/03 03:18:34;;;;;;;10.00;5.80;;;;;;;;;;5012763;28;20463;-55
2022/07/03 03:21:01;;;;;;;11.03;5.80;;;;;;;;;;5012761;28;20408;-55
2022/07/03 03:23:29;;;;;;;10.13;5.00;;;;;;;;;;5013170;28;20374;-55
2022/07/03 03:25:58;;;;;;;7.03;4.10;;;;;;;;;;5012938;28;20374;-55
2022/07/03 03:28:24;;;;;;;7.43;5.50;;;;;;;;;;5012873;28;20745;-55
2022/07/03 03:30:50;;;;;;;8.53;5.03;;;;;;;;;;5012585;28;20411;-56
2022/07/03 03:33:16;;;;;;;4.90;4.00;;;;;;;;;;5012758;28;20414;-57
2022/07/03 03:35:42;;;;;;;6.33;4.23;;;;;;;;;;5012756;28;20432;-55
2022/07/03 03:38:09;;;;;;;7.77;3.73;;;;;;;;;;5012433;28;20969;-55
2022/07/03 03:40:35;;;;;;;6.13;4.57;;;;;;;;;;5012364;28;20386;-55
2022/07/03 03:43:02;;;;;;;25.50;5.37;;;;;;;;;;5012604;28;20439;-56
2022/07/03 03:45:28;;;;;;;9.10;4.80;;;;;;;;;;5012495;28;20379;-56
2022/07/03 03:47:54;;;;;;;13.37;5.20;;;;;;;;;;5012371;28;20406;-57
2022/07/03 03:50:20;;;;;;;8.90;4.67;;;;;;;;;;5012224;28;20875;-55
2022/07/03 03:52:46;;;;;;;6.33;4.33;;;;;;;;;;5012462;28;20458;-57
2022/07/03 03:55:12;;;;;;;9.50;4.83;;;;;;;;;;5012465;28;20745;-58
2022/07/03 03:57:38;;;;;;;7.97;5.40;;;;;;;;;;5012341;28;20542;-56
2022/07/03 04:00:05;;;;;;;7.47;5.00;;;;;;;;;;5012582;28;20413;-57
2022/07/03 04:02:31;;;;;;;7.20;4.60;;;;;;;;;;5012211;28;20413;-57
2022/07/03 04:04:57;;;;;;;8.20;5.40;;;;;;;;;;5012501;28;20403;-57
2022/07/03 04:07:23;;;;;;;4.67;4.27;;;;;;;;;;5012121;28;20429;-57
2022/07/03 04:09:49;;;;;;;7.27;4.53;;;;;;;;;;5012588;28;20403;-57
2022/07/03 04:12:15;;;;;;;12.80;4.43;;;;;;;;;;5012099;28;20836;-55
2022/07/03 04:14:41;;;;;;;7.40;4.50;;;;;;;;;;5012120;28;20375;-56
2022/07/03 04:17:07;;;;;;;8.33;5.53;;;;;;;;;;5012129;28;20415;-56
2022/07/03 04:19:34;;;;;;;10.63;4.70;;;;;;;;;;5012262;28;20817;-55
2022/07/03 04:22:00;;;;;;;7.03;4.40;;;;;;;;;;5011942;28;20416;-56
2022/07/03 04:24:26;;;;;;;8.53;4.33;;;;;;;;;;5011558;28;20465;-56
2022/07/03 04:26:52;;;;;;;7.90;4.77;;;;;;;;;;5012090;28;20414;-56
2022/07/03 04:29:17;;;;;;;8.70;5.10;;;;;;;;;;5011915;28;20885;-56
2022/07/03 04:31:43;;;;;;;7.17;4.73;;;;;;;;;;5011787;28;20422;-57
2022/07/03 04:34:09;;;;;;;5.57;4.53;;;;;;;;;;5011926;28;20474;-56
2022/07/03 04:36:35;;;;;;;7.37;4.70;;;;;;;;;;5011932;28;20420;-56
2022/07/03 04:39:01;;;;;;;10.90;4.43;;;;;;;;;;5012003;28;20938;-57
2022/07/03 04:41:27;;;;;;;11.50;4.57;;;;;;;;;;5011784;28;20745;-55
2022/07/03 04:43:53;;;;;;;6.17;4.17;;;;;;;;;;5011898;28;20402;-56
2022/07/03 04:46:21;;;;;;;7.17;4.40;;;;;;;;;;5011818;28;20430;-55
2022/07/03 04:48:47;;;;;;;8.73;4.77;;;;;;;;;;5011895;28;20408;-57
2022/07/03 04:51:13;;;;;;;7.67;3.70;;;;;;;;;;5011669;28;20408;-55
2022/07/03 04:53:39;;;;;;;5.90;3.77;;;;;;;;;;5011821;28;20412;-57
2022/07/03 04:56:05;;;;;;;5.07;3.50;;;;;;;;;;5011783;28;20404;-57
2022/07/03 04:58:31;;;;;;;3.70;3.37;;;;;;;;;;5011616;28;20578;-57
2022/07/03 05:00:57;;;;;;;5.93;3.30;;;;;;;;;;5011580;28;20885;-56
2022/07/03 05:03:23;;;;;;;7.17;3.53;;;;;;;;;;5011740;28;20408;-58
2022/07/03 05:05:49;;;;;;;7.13;4.30;;;;;;;;;;5011698;28;20409;-57
2022/07/03 05:08:15;;;;;;;3.80;3.43;;;;;;;;;;5011737;28;20499;-57
2022/07/03 05:10:41;;;;;;;4.20;3.27;;;;;;;;;;5011451;28;20441;-56
2022/07/03 05:13:07;;;;;;;5.07;3.13;;;;;;;;;;5011544;28;20441;-57
2022/07/03 05:15:33;;;;;;;4.63;3.40;;;;;;;;;;5011687;28;20406;-57
2022/07/03 05:17:59;;;;;;;3.70;3.30;;;;;;;;;;5011629;28;20453;-56
2022/07/03 05:20:25;;;;;;;4.40;3.50;;;;;;;;;;5011523;28;20373;-57
2022/07/03 05:22:58;;;;;;;2.80;2.60;;;;;;;;;;5011582;28;20395;-58
2022/07/03 05:25:24;;;;;;;3.10;2.90;;;;;;;;;;5011578;28;21069;-58
2022/07/03 05:27:52;;;;;;;2.73;2.57;;;;;;;;;;5011303;28;20427;-57
2022/07/03 05:30:18;;;;;;;2.77;2.57;;;;;;;;;;5011242;28;20414;-56
2022/07/03 05:32:44;;;;;;;2.90;2.43;;;;;;;;;;5011529;28;20781;-58
2022/07/03 05:35:10;;;;;;;2.87;2.67;;;;;;;;;;5011550;28;20925;-57
2022/07/03 05:37:36;;;;;;;3.13;2.50;;;;;;;;;;5014763;28;20465;-56
2022/07/03 05:40:03;;;;;;;3.73;2.33;;;;;;;;;;5014778;28;20422;-58
2022/07/03 05:42:29;;;;;;;3.00;2.60;;;;;;;;;;5014645;28;20404;-55
2022/07/03 05:44:55;;;;;;;3.17;2.50;;;;;;;;;;5014890;28;21000;-57
2022/07/03 05:47:21;;;;;;;2.87;2.67;;;;;;;;;;5014876;28;20423;-56
2022/07/03 05:49:47;;;;;;;3.50;2.73;;;;;;;;;;5014629;28;20383;-56
2022/07/03 05:52:13;;;;;;;3.00;2.80;;;;;;;;;;5014501;28;20461;-56
2022/07/03 05:54:39;;;;;;;2.73;2.53;;;;;;;;;;5015152;28;20399;-58
2022/07/03 05:57:05;;;;;;;3.83;3.40;;;;;;;;;;5014436;28;20831;-56
2022/07/03 05:59:31;;;;;;;2.70;2.50;;;;;;;;;;5014398;28;20867;-58
2022/07/03 06:01:57;;;;;;;2.60;2.40;;;;;;;;;;5014301;28;20396;-58
2022/07/03 06:04:23;;;;;;;3.23;2.23;;;;;;;;;;5014513;28;20745;-55
2022/07/03 06:06:49;;;;;;;3.17;2.50;;;;;;;;;;5014371;28;20420;-55
2022/07/03 06:09:15;;;;;;;3.10;2.20;;;;;;;;;;5014249;28;20410;-56
2022/07/03 06:11:41;;;;;;;2.67;2.40;;;;;;;;;;5014058;28;20418;-56
2022/07/03 06:14:07;;;;;;;5.83;2.73;;;;;;;;;;5014288;28;20406;-56
2022/07/03 06:16:33;;;;;;;2.73;2.40;;;;;;;;;;5014243;28;20434;-55
2022/07/03 06:18:59;;;;;;;2.40;2.20;;;;;;;;;;5014103;28;20639;-57
2022/07/03 06:21:25;;;;;;;2.33;2.20;;;;;;;;;;5013896;28;20403;-57
2022/07/03 06:23:51;;;;;;;3.23;2.80;;;;;;;;;;5013990;28;20825;-56
2022/07/03 06:26:17;;;;;;;3.17;2.30;;;;;;;;;;5013931;28;20407;-58
2022/07/03 06:28:43;;;;;;;2.23;2.13;;;;;;;;;;5013933;28;20417;-58
2022/07/03 06:31:10;;;;;;;2.63;2.33;;;;;;;;;;5013662;28;20505;-57
2022/07/03 06:33:36;;;;;;;3.43;2.00;;;;;;;;;;5013346;28;20414;-58
2022/07/03 06:36:02;;;;;;;3.47;2.77;;;;;;;;;;5013291;28;20405;-57
2022/07/03 06:38:28;;;;;;;2.57;2.37;;;;;;;;;;5013018;28;20467;-57
2022/07/03 06:40:54;;;;;;;3.70;2.80;;;;;;;;;;5013757;28;20486;-56
2022/07/03 06:43:20;;;;;;;3.00;2.73;;;;;;;;;;5013173;28;20490;-56
2022/07/03 06:45:46;;;;;;;6.10;2.97;;;;;;;;;;5011829;28;20395;-55
2022/07/03 06:48:12;;;;;;;2.60;2.07;;;;;;;;;;5009332;28;20953;-59
2022/07/03 06:50:38;;;;;;;3.60;3.20;;;;;;;;;;5014922;28;20401;-58
2022/07/03 06:53:04;;;;;;;5.17;2.80;;;;;;;;;;5013214;28;20480;-58
2022/07/03 06:55:30;;;;;;;2.40;2.20;;;;;;;;;;5012871;28;20534;-58
2022/07/03 06:57:56;;;;;;;2.77;2.57;;;;;;;;;;5011647;28;20455;-58
2022/07/03 07:00:22;;;;;;;4.90;2.67;;;;;;;;;;5011234;28;20408;-58
2022/07/03 07:02:48;;;;;;;6.30;2.70;;;;;;;;;;5012160;28;20406;-58
2022/07/03 07:05:14;;;;;;;2.73;2.43;;;;;;;;;;5012795;28;20400;-58
2022/07/03 07:07:40;;;;;;;5.20;2.70;;;;;;;;;;5013353;28;20766;-58
2022/07/03 07:10:06;;;;;;;7.40;2.80;;;;;;;;;;5013058;28;20494;-58
2022/07/03 07:12:32;;;;;;;2.73;2.53;;;;;;;;;;5013487;28;20443;-58
2022/07/03 07:14:58;;;;;;;4.77;2.70;;;;;;;;;;5013156;28;20423;-58
2022/07/03 07:17:24;;;;;;;3.40;3.10;;;;;;;;;;5013013;28;20438;-58
2022/07/03 07:19:50;;;;;;;4.57;3.10;;;;;;;;;;5012938;28;20417;-58
2022/07/03 07:22:16;;;;;;;6.10;3.17;;;;;;;;;;5012755;28;20410;-58
2022/07/03 07:24:42;;;;;;;3.17;2.87;;;;;;;;;;5013235;28;20983;-58
2022/07/03 07:27:08;;;;;;;4.50;2.80;;;;;;;;;;5013086;28;20509;-58
2022/07/03 07:29:34;;;;;;;2.50;2.30;;;;;;;;;;5012786;28;20490;-58
2022/07/03 07:32:00;;;;;;;4.50;3.03;;;;;;;;;;5012597;28;20409;-58
2022/07/03 07:34:26;;;;;;;7.10;4.03;;;;;;;;;;5012754;28;20414;-58
2022/07/03 07:36:52;;;;;;;4.43;3.03;;;;;;;;;;5012422;28;20481;-58
2022/07/03 07:39:18;;;;;;;5.50;2.90;;;;;;;;;;5012561;28;20458;-58
2022/07/03 07:41:44;;;;;;;2.80;2.60;;;;;;;;;;5012398;28;20909;-59
2022/07/03 07:44:10;;;;;;;7.20;3.53;;;;;;;;;;5012586;28;20464;-58
2022/07/03 07:46:36;;;;;;;3.60;3.10;;;;;;;;;;5012555;28;20505;-58
2022/07/03 07:49:01;;;;;;;3.77;3.37;;;;;;;;;;5012514;28;20501;-59
2022/07/03 07:51:27;;;;;;;5.10;3.93;;;;;;;;;;5012175;28;20410;-58
2022/07/03 07:53:57;;;;;;;5.17;3.30;;;;;;;;;;5012430;28;20933;-59
2022/07/03 07:56:23;;;;;;;3.73;3.43;;;;;;;;;;5012427;28;20469;-58
2022/07/03 07:58:49;;;;;;;4.50;2.60;;;;;;;;;;5011640;28;20462;-58
2022/07/03 08:06:44;;;;;;;5.20;3.23;;;;;;;;;;5012283;28;20414;-59
2022/07/03 08:09:10;;;;;;;8.80;3.20;;;;;;;;;;5012144;28;20403;-59
2022/07/03 08:11:36;;;;;;;3.60;2.80;;;;;;;;;;5012086;28;20399;-59
2022/07/03 08:14:04;;;;;;;3.57;2.60;;;;;;;;;;5012213;28;20787;-59
2022/07/03 08:16:30;;;;;;;3.37;2.73;;;;;;;;;;5012311;28;20783;-59
2022/07/03 08:18:56;;;;;;;6.27;2.90;;;;;;;;;;5012138;28;20459;-59
2022/07/03 08:21:22;;;;;;;3.27;2.57;;;;;;;;;;5012380;28;20402;-59
2022/07/03 08:23:48;;;;;;;5.37;3.30;;;;;;;;;;5012531;28;20786;-59
2022/07/03 08:26:14;;;;;;;3.80;2.50;;;;;;;;;;5012108;28;20910;-58
2022/07/03 08:28:40;;;;;;;5.77;3.13;;;;;;;;;;5012051;28;20833;-58
2022/07/03 08:31:06;;;;;;;3.50;2.80;;;;;;;;;;5011664;28;20408;-59
2022/07/03 08:33:33;;;;;;;8.33;2.27;;;;;;;;;;5012019;28;20407;-59
2022/07/03 08:35:59;;;;;;;3.40;2.80;;;;;;;;;;5011952;28;20410;-60
2022/07/03 08:38:29;;;;;;;2.97;2.60;;;;;;;;;;5011623;28;20467;-60
2022/07/03 08:40:57;;;;;;;3.47;1.90;;;;;;;;;;5011756;28;20431;-60
2022/07/03 08:43:23;;;;;;;2.17;2.00;;;;;;;;;;5000670;28;20415;-59
2022/07/03 08:45:49;;;;;;;4.07;2.13;;;;;;;;;;4991906;28;20420;-60
2022/07/03 08:48:16;;;;;;;3.70;2.27;;;;;;;;;;5007979;28;20462;-58
2022/07/03 08:50:42;;;;;;;2.97;1.60;;;;;;;;;;5011538;28;20399;-58
2022/07/03 08:53:10;;;;;;;1.87;1.77;;;;;;;;;;5011649;28;20895;-57
2022/07/03 08:55:36;;;;;;;2.07;1.93;;;;;;;;;;5011370;28;20421;-57
2022/07/03 08:58:02;;;;;;;3.33;1.63;;;;;;;;;;5011354;28;20550;-58
2022/07/03 09:00:28;;;;;;;4.07;2.07;;;;;;;;;;5011354;28;20901;-58
2022/07/03 09:02:55;;;;;;;2.53;1.70;;;;;;;;;;5011346;28;20501;-57
2022/07/03 09:05:21;;;;;;;4.40;1.93;;;;;;;;;;5011592;28;21013;-57
2022/07/03 09:07:47;;;;;;;4.40;2.20;;;;;;;;;;5011005;28;20474;-57
2022/07/03 09:10:14;;;;;;;2.20;1.53;;;;;;;;;;5012673;28;20423;-57
2022/07/03 09:12:40;;;;;;;2.57;2.37;;;;;;;;;;5015000;28;20395;-55
2022/07/03 09:15:07;;;;;;;2.30;2.10;;;;;;;;;;5015099;28;20411;-55
2022/07/03 09:17:33;;;;;;;2.83;2.00;;;;;;;;;;5015116;28;20426;-55
2022/07/03 09:20:01;;;;;;;3.73;1.93;;;;;;;;;;5014885;28;20425;-57
2022/07/03 09:22:29;;;;;;;3.13;2.03;;;;;;;;;;5015045;28;20898;-54
2022/07/03 09:25:03;;;;;;;6.53;2.60;;;;;;;;;;5014890;28;20823;-55
2022/07/03 09:27:29;;;;;;;2.20;2.00;;;;;;;;;;5015049;28;20828;-55
2022/07/03 09:30:02;;;;;;;2.10;1.90;;;;;;;;;;5014506;28;20902;-54
2022/07/03 09:32:38;;;;;;;3.40;1.90;;;;;;;;;;5014920;28;20481;-56
2022/07/03 09:35:10;;;;;;;5.10;2.57;;;;;;;;;;5014637;28;20410;-55
2022/07/03 09:37:36;;;;;;;3.10;2.07;;;;;;;;;;5014508;28;20474;-53
2022/07/03 09:40:03;;;;;;;3.90;1.97;;;;;;;;;;5014506;28;20411;-55
2022/07/03 09:42:29;;;;;;;3.40;1.60;;;;;;;;;;5014707;28;20815;-55
2022/07/03 09:44:55;;;;;;;2.43;2.17;;;;;;;;;;5014417;28;20411;-55
2022/07/03 09:47:21;;;;;;;3.10;2.50;;;;;;;;;;5014677;28;20971;-57
2022/07/03 09:50:00;;;;;;;4.87;1.97;;;;;;;;;;5014286;28;20415;-54
2022/07/03 09:52:29;;;;;;;3.23;1.93;;;;;;;;;;5014325;28;20499;-55
2022/07/03 09:55:11;;;;;;;4.60;2.80;;;;;;;;;;5014229;28;20494;-54
2022/07/03 09:57:38;;;;;;;1.70;1.50;;;;;;;;;;5014456;28;20415;-55
2022/07/03 10:00:23;;;;;;;2.40;2.20;;;;;;;;;;5014002;28;20419;-57
2022/07/03 10:02:59;;;;;;;1.90;1.80;;;;;;;;;;5014418;28;20434;-55
2022/07/03 10:05:33;;;;;;;6.40;2.27;;;;;;;;;;5014361;28;20411;-57
2022/07/03 10:08:06;;;;;;;1.97;1.80;;;;;;;;;;5014354;28;20415;-55
2022/07/03 10:10:33;;;;;;;3.37;1.90;;;;;;;;;;5013869;28;20426;-54
2022/07/03 10:12:59;;;;;;;3.33;2.40;;;;;;;;;;5014121;28;20433;-56
2022/07/03 10:15:26;;;;;;;4.03;2.60;;;;;;;;;;5013834;28;20480;-57
2022/07/03 10:17:53;;;;;;;2.83;2.60;;;;;;;;;;5014279;28;21056;-54
2022/07/03 10:20:27;;;;;;;3.60;2.20;;;;;;;;;;5013542;28;20451;-54
2022/07/03 10:22:53;;;;;;;2.00;1.83;;;;;;;;;;5013299;28;20899;-54
2022/07/03 10:25:19;;;;;;;3.33;2.00;;;;;;;;;;5013729;28;20778;-54
2022/07/03 10:27:49;;;;;;;2.67;2.47;;;;;;;;;;5013848;28;20431;-54
2022/07/03 10:30:21;;;;;;;2.70;2.10;;;;;;;;;;5013432;28;20430;-57
2022/07/03 10:32:49;;;;;;;4.83;2.10;;;;;;;;;;5013924;28;20485;-54
2022/07/03 10:35:20;;;;;;;1.77;1.40;;;;;;;;;;5013608;28;20469;-56
2022/07/03 10:37:53;;;;;;;6.20;3.17;;;;;;;;;;5013576;28;20954;-55
2022/07/03 10:46:14;;;;;;;1.80;1.70;;;;;;;;;;4994313;28;20462;-55
2022/07/03 10:49:00;;;;;;;1.50;1.40;;;;;;;;;;4996818;28;20423;-56
2022/07/03 10:51:26;;;;;;;2.10;1.93;;;;;;;;;;5013418;28;20430;-54
2022/07/03 10:54:12;;;;;;;6.63;1.53;;;;;;;;;;5013197;28;20442;-55
2022/07/03 10:56:56;;;;;;;2.03;1.77;;;;;;;;;;5013390;28;20419;-55
2022/07/03 10:59:22;;;;;;;2.90;1.70;;;;;;;;;;5013030;28;21131;-54
2022/07/03 11:01:49;;;;;;;3.23;1.63;;;;;;;;;;5013262;28;20406;-55
2022/07/03 11:04:14;;;;;;;3.67;1.80;;;;;;;;;;5013044;28;20485;-55
2022/07/03 11:06:40;;;;;;;3.00;1.80;;;;;;;;;;5013156;28;21006;-56
2022/07/03 11:09:09;;;;;;;1.93;1.73;;;;;;;;;;5012819;28;20419;-56
2022/07/03 11:11:54;;;;;;;3.67;1.70;;;;;;;;;;5013023;28;20183;-55
2022/07/03 11:14:20;;;;;;;2.07;1.90;;;;;;;;;;5012844;28;20414;-56
2022/07/03 11:16:46;;;;;;;3.33;1.57;;;;;;;;;;5013025;28;20843;-57
2022/07/03 11:19:12;;;;;;;2.07;1.87;;;;;;;;;;5012575;28;20537;-59
2022/07/03 11:21:42;;;;;;;3.50;1.93;;;;;;;;;;5012770;28;20486;-59
2022/07/03 11:24:22;;;;;;;2.53;1.70;;;;;;;;;;5012650;28;20473;-57
2022/07/03 11:27:08;;;;;;;1.73;1.63;;;;;;;;;;5012438;28;20439;-56
2022/07/03 11:29:36;;;;;;;3.33;1.40;;;;;;;;;;5012454;28;20419;-56
2022/07/03 11:32:21;;;;;;;1.73;1.47;;;;;;;;;;5012216;28;20931;-56
2022/07/03 11:34:47;;;;;;;4.07;1.63;;;;;;;;;;5012674;28;20431;-57
2022/07/03 11:37:20;;;;;;;2.40;1.30;;;;;;;;;;5012167;28;20474;-59
2022/07/03 11:39:48;;;;;;;4.00;1.87;;;;;;;;;;5012814;28;21020;-56
2022/07/03 11:42:14;;;;;;;1.67;1.33;;;;;;;;;;5012069;28;20474;-56
2022/07/03 11:44:40;;;;;;;3.43;2.00;;;;;;;;;;5012459;28;20877;-57
2022/07/03 11:47:06;;;;;;;1.67;1.57;;;;;;;;;;5012365;28;20960;-57
2022/07/03 11:49:34;;;;;;;6.83;1.70;;;;;;;;;;5012334;28;20407;-56
2022/07/03 11:52:01;;;;;;;1.50;1.40;;;;;;;;;;5011952;28;20425;-55
2022/07/03 11:54:31;;;;;;;3.47;1.40;;;;;;;;;;5012572;28;20896;-54
2022/07/03 11:56:57;;;;;;;3.40;1.30;;;;;;;;;;5010272;28;20441;-54
2022/07/03 11:59:23;;;;;;;2.37;1.43;;;;;;;;;;5011720;28;20462;-57
2022/07/03 12:01:49;;;;;;;1.57;1.40;;;;;;;;;;5009589;28;20415;-56
2022/07/03 12:04:21;;;;;;;2.23;1.40;;;;;;;;;;5009893;28;20430;-54
2022/07/03 12:06:49;;;;;;;2.40;1.40;;;;;;;;;;5011955;28;20514;-53
2022/07/03 12:09:18;;;;;;;1.70;1.60;;;;;;;;;;5012101;28;20446;-54
2022/07/03 12:11:53;;;;;;;1.80;1.43;;;;;;;;;;5011846;28;20407;-54
2022/07/03 12:14:33;;;;;;;3.50;1.83;;;;;;;;;;5011183;28;20411;-53
2022/07/03 12:16:59;;;;;;;1.80;1.70;;;;;;;;;;5011473;28;20796;-54
2022/07/03 12:19:25;;;;;;;4.70;1.60;;;;;;;;;;5011320;28;20545;-55
2022/07/03 12:21:51;;;;;;;2.10;1.30;;;;;;;;;;5011795;28;20433;-55
2022/07/03 12:24:17;;;;;;;2.70;1.40;;;;;;;;;;5010522;28;20441;-55
2022/07/03 12:26:43;;;;;;;3.13;1.60;;;;;;;;;;5009933;28;20914;-56
2022/07/03 12:29:10;;;;;;;1.90;1.23;;;;;;;;;;5009546;28;20445;-55
2022/07/03 12:31:44;;;;;;;2.03;1.40;;;;;;;;;;5010302;28;20410;-55
2022/07/03 12:34:11;;;;;;;1.87;1.37;;;;;;;;;;5010816;28;20423;-58
2022/07/03 12:36:37;;;;;;;1.70;1.60;;;;;;;;;;5011735;28;20450;-58
2022/07/03 12:39:03;;;;;;;1.73;1.30;;;;;;;;;;5011020;28;21022;-57
2022/07/03 12:41:29;;;;;;;3.57;1.10;;;;;;;;;;5012518;28;20494;-57
2022/07/03 12:43:56;;;;;;;1.93;1.70;;;;;;;;;;5011739;28;20461;-56
2022/07/03 12:46:23;;;;;;;3.10;1.30;;;;;;;;;;5015425;28;20399;-55
2022/07/03 12:48:49;;;;;;;1.80;1.20;;;;;;;;;;5015266;28;20426;-56
2022/07/03 12:51:16;;;;;;;2.80;1.20;;;;;;;;;;5020776;28;20415;-57
2022/07/03 12:53:43;;;;;;;1.23;1.00;;;;;;;;;;5015533;28;20768;-56
2022/07/03 12:56:10;;;;;;;3.60;1.30;;;;;;;;;;5015591;28;20430;-57
2022/07/03 13:01:42;;;;;;;2.27;1.33;;;;;;;;;;4993221;28;20416;-54
2022/07/03 13:04:09;;;;;;;1.80;1.43;;;;;;;;;;4998948;28;20423;-55
2022/07/03 13:06:35;;;;;;;1.83;1.43;;;;;;;;;;5015467;28;20423;-56
2022/07/03 13:09:02;;;;;;;4.90;1.70;;;;;;;;;;5015223;28;20533;-57
2022/07/03 13:11:29;;;;;;;2.07;1.27;;;;;;;;;;5015157;28;20879;-58
2022/07/03 13:14:02;;;;;;;2.93;1.73;;;;;;;;;;5014992;28;21001;-56
2022/07/03 13:16:28;;;;;;;1.40;1.30;;;;;;;;;;5014928;28;20918;-57
2022/07/03 13:18:58;;;;;;;1.70;1.30;;;;;;;;;;5014794;28;20462;-58
2022/07/03 13:21:24;;;;;;;2.13;1.40;;;;;;;;;;5014642;28;20422;-59
2022/07/03 13:23:50;;;;;;;1.60;1.50;;;;;;;;;;5014860;28;20403;-56
2022/07/03 13:26:16;;;;;;;6.00;1.40;;;;;;;;;;5014945;28;20407;-57
2022/07/03 13:28:42;;;;;;;1.40;1.30;;;;;;;;;;5014627;28;20399;-56
2022/07/03 13:31:08;;;;;;;1.50;1.37;;;;;;;;;;5014340;28;21002;-57
2022/07/03 13:33:34;;;;;;;2.30;2.10;;;;;;;;;;5015166;28;20758;-59
2022/07/03 13:36:00;;;;;;;2.10;1.50;;;;;;;;;;5014598;28;20415;-58
2022/07/03 13:38:25;;;;;;;2.83;1.70;;;;;;;;;;5014462;28;20504;-58
2022/07/03 13:40:52;;;;;;;3.10;1.60;;;;;;;;;;5013771;28;20423;-55
2022/07/03 13:43:17;;;;;;;2.43;1.43;;;;;;;;;;5014817;28;20403;-56
2022/07/03 13:45:44;;;;;;;4.87;1.60;;;;;;;;;;5014142;28;20417;-56
2022/07/03 13:48:10;;;;;;;1.87;1.40;;;;;;;;;;5014588;28;20423;-56
2022/07/03 13:50:36;;;;;;;2.03;1.70;;;;;;;;;;5013915;28;20427;-55
2022/07/03 13:53:02;;;;;;;3.50;1.93;;;;;;;;;;5014673;28;20434;-55
2022/07/03 13:55:28;;;;;;;2.90;1.40;;;;;;;;;;5014048;28;20450;-56
2022/07/03 13:57:55;;;;;;;1.60;1.50;;;;;;;;;;5013533;28;20938;-56
2022/07/03 14:00:21;;;;;;;1.63;1.43;;;;;;;;;;5013348;28;20416;-57
2022/07/03 14:02:47;;;;;;;2.53;1.47;;;;;;;;;;5014458;28;20409;-57
2022/07/03 14:05:13;;;;;;;1.73;1.43;;;;;;;;;;5014258;28;20425;-56
2022/07/03 14:07:38;;;;;;;1.30;1.20;;;;;;;;;;5014120;28;20427;-57
2022/07/03 14:10:05;;;;;;;2.73;1.40;;;;;;;;;;5014237;28;20425;-57
2022/07/03 14:12:31;;;;;;;1.40;1.30;;;;;;;;;;5014245;28;20887;-58
2022/07/03 14:14:57;;;;;;;2.17;1.37;;;;;;;;;;5013701;28;20478;-57
2022/07/03 14:17:23;;;;;;;1.50;1.33;;;;;;;;;;5014048;28;20855;-57
2022/07/03 14:19:49;;;;;;;1.70;1.50;;;;;;;;;;5013887;28;20553;-57
2022/07/03 14:22:15;;;;;;;1.70;1.40;;;;;;;;;;5013864;28;20507;-58
2022/07/03 14:24:41;;;;;;;2.83;1.60;;;;;;;;;;5014068;28;20949;-60
2022/07/03 14:32:36;;;;;;;6.03;1.83;;;;;;;;;;5013601;28;20418;-57
2022/07/03 14:35:03;;;;;;;6.20;1.67;;;;;;;;;;5013806;28;20399;-58
2022/07/03 14:37:29;;;;;;;4.40;1.60;;;;;;;;;;5013558;28;20458;-58
2022/07/03 14:39:55;;;;;;;1.97;1.60;;;;;;;;;;5013340;28;20462;-56
2022/07/03 14:42:21;;;;;;;1.30;1.20;;;;;;;;;;5013231;28;20963;-57
2022/07/03 14:44:48;;;;;;;1.90;1.80;;;;;;;;;;5013613;28;20407;-57
2022/07/03 14:47:14;;;;;;;3.73;1.30;;;;;;;;;;5013147;28;20419;-56
2022/07/03 14:49:41;;;;;;;4.90;1.70;;;;;;;;;;5013459;28;20399;-55
2022/07/03 14:52:07;;;;;;;2.10;1.50;;;;;;;;;;5013018;28;20462;-57
2022/07/03 14:54:36;;;;;;;2.53;2.07;;;;;;;;;;5013415;28;20624;-56
2022/07/03 14:57:03;;;;;;;4.10;1.33;;;;;;;;;;5013080;28;20941;-56
2022/07/03 14:59:42;;;;;;;5.23;1.47;;;;;;;;;;5013140;28;20872;-57
2022/07/03 15:02:10;;;;;;;4.13;1.40;;;;;;;;;;5012842;28;20437;-57
2022/07/03 15:04:56;;;;;;;1.30;1.20;;;;;;;;;;5013134;28;20498;-58
2022/07/03 15:07:23;;;;;;;1.30;1.20;;;;;;;;;;5012525;28;21009;-56